VI90 weather

Akbarpur Airport
Uttar Pradesh, India

Public forecast

Using degrees Celsius for public forecast. Weather courtesy of forecast.io.

METAR (pilot weather report)

Closest report is Gorakhpur Airport, 50.5 nm (93.5 km) ENE. Retrieved 2019/07/21 17:30 UTC (42 minutes ago):

VEGK 211730Z VRB01KT 6000 FEW020 SCT100 29/29 Q1002 NOSIG

TAF (pilot weather forecast)

Closest forecast is Gorakhpur Airport, 50.5 nm (93.5 km) ENE. Retrieved 2019/07/21 12:30 UTC (6 hours ago):

TAF VEGK 210930Z 2112/2124 11010KT 6000 SCT025 SCT035 BKN090 TEMPO 2114/2116 4000 TSRA SCT015 SCT025 FEW030CB BKN090 TEMPO 2122/2124 4000 TSRA SCT015 SCT025 FEW030CB BKN090